Time;durP1;ratioP1;P1;durP2;ratioP2;P2;SDS_P1;SDS_P2;PMS_P1;PMS_P2;Temp;Humidity;BMP_temperature;BMP_pressure;BME280_temperature;BME280_humidity;BME280_pressure;Samples;Min_cycle;Max_cycle;Signal;HPM_P1;HPM_P2
2024/04/22 00:02:27;;;;;;;11.07;6.18;;;;;;;31.10;87.44;100782.66;5392782;26;69052;-29
2024/04/22 00:04:58;;;;;;;7.57;6.57;;;;;;;31.10;84.98;100788.09;5393452;26;64357;-33
2024/04/22 00:07:31;;;;;;;7.57;6.85;;;;;;;31.16;87.30;100801.56;5375757;26;68856;-30
2024/04/22 00:10:02;;;;;;;10.60;6.97;;;;;;;31.22;86.55;100801.72;5389412;26;64163;-29
2024/04/22 00:12:33;;;;;;;14.00;7.60;;;;;;;31.26;85.97;100813.75;5390886;26;68721;-29
2024/04/22 00:15:05;;;;;;;9.93;7.47;;;;;;;31.14;85.07;100789.28;5384600;26;64820;-29
2024/04/22 00:17:36;;;;;;;;;;;;;;;31.29;90.40;100821.47;5393959;26;67726;-28
2024/04/22 00:20:07;;;;;;;9.18;6.93;;;;;;;31.29;86.02;100825.00;5387318;26;64175;-30
2024/04/22 00:22:38;;;;;;;7.80;7.07;;;;;;;31.39;86.72;100832.63;5382074;26;67100;-29
2024/04/22 00:25:09;;;;;;;10.43;6.93;;;;;;;31.41;86.69;100833.22;5390556;26;65406;-29
2024/04/22 00:27:40;;;;;;;7.38;6.85;;;;;;;31.45;86.46;100834.41;5378463;26;70467;-29
2024/04/22 00:30:11;;;;;;;7.22;6.55;;;;;;;31.47;86.57;100832.31;5398867;26;63698;-29
2024/04/22 00:32:45;;;;;;;9.90;6.07;;;;;;;31.37;87.30;100815.75;5389587;26;67842;-28
2024/04/22 00:35:16;;;;;;;6.78;6.35;;;;;;;31.53;85.29;100842.25;5401391;26;64882;-29
2024/04/22 00:37:47;;;;;;;9.63;6.13;;;;;;;31.51;86.77;100838.97;5379471;26;68949;-29
2024/04/22 00:40:19;;;;;;;10.82;6.55;;;;;;;31.49;86.96;100834.81;5351835;26;65122;-29
2024/04/22 00:42:50;;;;;;;;;;;;;;;31.53;90.13;100853.09;5365503;26;67766;-29
2024/04/22 00:45:21;;;;;;;9.27;6.03;;;;;;;31.61;87.30;100844.66;5385624;26;65674;-29
2024/04/22 00:47:52;;;;;;;7.13;6.10;;;;;;;31.62;88.36;100861.75;5386764;26;68312;-29
2024/04/22 00:50:24;;;;;;;10.32;6.47;;;;;;;31.72;85.23;100862.06;5399567;26;65091;-30
2024/04/22 00:52:58;;;;;;;6.25;5.65;;;;;;;31.66;84.36;100840.47;5389302;26;68680;-30
2024/04/22 00:55:30;;;;;;;7.47;6.35;;;;;;;31.81;85.00;100871.56;5384015;26;65347;-30
2024/04/22 00:58:04;;;;;;;9.65;5.90;;;;;;;31.87;84.03;100864.38;5384271;26;67648;-31
2024/04/22 01:00:36;;;;;;;6.80;5.75;;;;;;;31.66;83.91;100835.03;5380791;26;64943;-30
2024/04/22 01:03:07;;;;;;;6.53;5.75;;;;;;;31.87;84.47;100877.13;5411737;26;67798;-33
2024/04/22 01:05:39;;;;;;;6.38;5.80;;;;;;;31.90;83.59;100882.09;5405893;26;64206;-31
2024/04/22 01:08:10;;;;;;;5.70;5.20;;;;;;;31.89;82.67;100884.00;5385602;26;69447;-30
2024/04/22 01:10:41;;;;;;;9.97;5.50;;;;;;;31.93;82.56;100890.66;5368437;26;63841;-29
2024/04/22 01:13:13;;;;;;;5.13;4.80;;;;;;;31.93;83.12;100890.66;5400430;26;68701;-30
2024/04/22 01:15:45;;;;;;;7.97;5.78;;;;;;;31.97;83.37;100897.28;5387800;26;64341;-30
2024/04/22 01:18:19;;;;;;;;;;;;;;;31.96;84.07;100890.19;5370746;26;68561;-30
2024/04/22 01:20:50;;;;;;;5.50;5.00;;;;;;;32.05;82.30;100894.25;5408321;26;65924;-30
2024/04/22 01:23:21;;;;;;;5.50;5.00;;;;;;;32.08;81.66;100889.44;5372500;26;67772;-30
2024/04/22 01:25:57;;;;;;;9.27;5.17;;;;;;;32.10;82.55;100901.72;5384529;26;64411;-30
2024/04/22 01:28:28;;;;;;;5.20;4.80;;;;;;;32.11;81.48;100892.50;5399853;26;67920;-30
2024/04/22 01:31:00;;;;;;;8.68;5.05;;;;;;;32.15;82.51;100887.44;5385682;26;63840;-30
2024/04/22 01:33:31;;;;;;;5.85;4.97;;;;;;;32.15;82.38;100892.88;5384470;26;69012;-30
2024/04/22 01:36:02;;;;;;;5.35;4.85;;;;;;;32.16;81.59;100889.94;5393824;26;65934;-30
2024/04/22 01:38:32;;;;;;;5.68;4.70;;;;;;;32.18;81.83;100892.41;5395869;26;69064;-29
2024/04/22 01:41:04;;;;;;;6.53;4.60;;;;;;;32.21;82.05;100902.84;5403095;26;64624;-29
2024/04/22 01:43:35;;;;;;;4.72;4.47;;;;;;;32.25;81.32;100883.13;5379155;26;68539;-30
2024/04/22 01:46:07;;;;;;;5.18;4.68;;;;;;;32.28;80.84;100892.72;5397651;26;64540;-30
2024/04/22 01:48:38;;;;;;;5.07;4.63;;;;;;;32.30;80.70;100890.59;5399563;26;68756;-30
2024/04/22 01:51:09;;;;;;;5.03;4.63;;;;;;;32.33;80.60;100903.72;5371973;26;64848;-31
2024/04/22 01:53:40;;;;;;;4.77;4.37;;;;;;;32.35;80.50;100898.06;5413996;26;69416;-30
2024/04/22 01:56:11;;;;;;;4.37;4.07;;;;;;;32.38;81.00;100903.84;5422441;26;66094;-30
2024/04/22 01:58:42;;;;;;;4.90;4.50;;;;;;;32.42;81.48;100904.22;5417109;26;68649;-31
2024/04/22 02:01:13;;;;;;;;;;;;;;;32.39;82.24;100905.50;5420183;26;65071;-33
2024/04/22 02:03:44;;;;;;;4.80;4.50;;;;;;;32.49;80.63;100911.25;5372091;26;67455;-35
2024/04/22 02:06:15;;;;;;;4.43;4.10;;;;;;;32.54;80.97;100904.28;5375565;26;64764;-31
2024/04/22 02:08:46;;;;;;;4.07;3.77;;;;;;;32.53;80.75;100899.91;5378945;26;69139;-30
2024/04/22 02:11:17;;;;;;;5.03;4.57;;;;;;;32.58;80.72;100902.78;5384553;26;64912;-29
2024/04/22 02:13:48;;;;;;;4.25;3.95;;;;;;;32.59;79.75;100898.97;5392375;26;68504;-30
2024/04/22 02:16:19;;;;;;;4.20;3.92;;;;;;;32.63;79.53;100906.44;5383217;26;65740;-30
2024/04/22 02:18:56;;;;;;;4.30;3.97;;;;;;;32.65;81.62;100903.47;5385118;26;67800;-30
2024/04/22 02:21:28;;;;;;;4.20;3.90;;;;;;;32.68;80.42;100897.59;5381471;26;65352;-30
2024/04/22 02:23:59;;;;;;;3.80;3.50;;;;;;;32.67;80.11;100890.50;5378170;26;68005;-30
2024/04/22 02:26:30;;;;;;;4.17;3.77;;;;;;;32.72;79.71;100885.22;5385080;26;64967;-31
2024/04/22 02:29:01;;;;;;;4.40;4.00;;;;;;;32.78;80.81;100892.41;5393297;26;67637;-30
2024/04/22 02:31:33;;;;;;;4.05;3.75;;;;;;;32.80;80.38;100893.03;5388344;26;65507;-30
2024/04/22 02:34:04;;;;;;;3.63;3.20;;;;;;;32.82;80.47;100882.75;5369291;26;68141;-30
2024/04/22 02:36:35;;;;;;;3.75;3.55;;;;;;;32.86;80.39;100878.50;5386435;26;64772;-30
2024/04/22 02:39:06;;;;;;;3.90;3.60;;;;;;;32.88;79.87;100881.00;5386866;26;68266;-30
2024/04/22 02:41:37;;;;;;;3.90;3.60;;;;;;;32.93;79.47;100873.81;5412903;26;65119;-30
2024/04/22 02:44:09;;;;;;;3.45;3.25;;;;;;;32.97;80.25;100878.75;5421261;26;68851;-30
2024/04/22 02:46:40;;;;;;;13.13;4.33;;;;;;;32.98;79.84;100873.06;5397571;26;65270;-31
2024/04/22 02:49:11;;;;;;;4.70;3.55;;;;;;;33.01;79.11;100871.81;5419861;26;68009;-30
2024/04/22 02:51:42;;;;;;;3.65;3.35;;;;;;;33.05;78.90;100871.13;5400284;26;65605;-30
2024/04/22 02:54:13;;;;;;;3.90;3.60;;;;;;;33.10;79.86;100875.84;5387296;26;69849;-31
2024/04/22 02:56:45;;;;;;;5.03;3.60;;;;;;;33.13;79.73;100865.31;5409864;26;63983;-29
2024/04/22 02:59:16;;;;;;;3.42;3.13;;;;;;;33.17;79.33;100862.97;5404519;26;68893;-30
2024/04/22 03:01:50;;;;;;;3.35;3.10;;;;;;;33.21;79.27;100866.88;5416931;26;64345;-33
2024/04/22 03:04:21;;;;;;;3.33;2.97;;;;;;;33.21;79.08;100847.84;5386268;26;68451;-33
2024/04/22 03:06:52;;;;;;;2.70;2.50;;;;;;;33.27;78.60;100846.88;5388048;26;63616;-35
2024/04/22 03:09:25;;;;;;;2.88;2.50;;;;;;;33.31;78.58;100848.06;5387502;26;68640;-32
2024/04/22 03:11:57;;;;;;;3.35;3.15;;;;;;;33.36;79.04;100844.63;5377848;26;64748;-35
2024/04/22 03:14:28;;;;;;;3.13;2.87;;;;;;;33.38;78.07;100843.34;5419880;26;68649;-31
2024/04/22 03:16:59;;;;;;;3.35;3.05;;;;;;;33.42;78.62;100832.78;5407258;26;64350;-30
2024/04/22 03:19:31;;;;;;;4.00;2.95;;;;;;;33.44;78.11;100835.28;5386501;26;67614;-34
2024/04/22 03:22:02;;;;;;;3.30;3.00;;;;;;;33.50;78.80;100837.03;5393590;26;64396;-31
2024/04/22 03:24:33;;;;;;;2.88;2.67;;;;;;;33.52;77.44;100833.06;5390081;26;68737;-30
2024/04/22 03:27:05;;;;;;;2.78;2.58;;;;;;;33.56;78.04;100831.50;5385786;26;64045;-30
2024/04/22 03:29:36;;;;;;;2.83;2.63;;;;;;;33.59;78.70;100824.75;5403640;26;69315;-29
2024/04/22 03:32:07;;;;;;;3.08;2.88;;;;;;;33.58;77.70;100823.09;5408934;26;65052;-34
2024/04/22 03:34:38;;;;;;;2.65;2.53;;;;;;;33.65;77.79;100821.06;5374688;26;68407;-30
2024/04/22 03:37:09;;;;;;;2.72;2.53;;;;;;;33.69;78.43;100832.31;5386039;26;65848;-30
2024/04/22 03:39:40;;;;;;;2.97;2.78;;;;;;;33.73;78.04;100828.03;5413329;26;68922;-30
2024/04/22 03:42:12;;;;;;;2.63;2.40;;;;;;;33.75;78.19;100820.47;5385235;26;64802;-31
2024/04/22 03:44:43;;;;;;;3.03;2.80;;;;;;;33.79;77.87;100821.63;5388091;26;67934;-32
2024/04/22 03:50:04;;;;;;;3.63;2.38;;;;;;;33.87;77.74;100817.69;5379871;26;68578;-30
2024/04/22 03:52:35;;;;;;;2.72;2.53;;;;;;;33.90;77.15;100817.19;5396129;26;64675;-31
2024/04/22 03:55:06;;;;;;;3.08;2.80;;;;;;;33.91;77.59;100813.44;5387472;26;69370;-30
2024/04/22 03:57:38;;;;;;;2.60;2.40;;;;;;;33.94;76.97;100810.22;5396592;26;64972;-30
2024/04/22 04:00:09;;;;;;;2.80;2.60;;;;;;;33.96;77.55;100811.63;5383248;26;69120;-31
2024/04/22 04:02:40;;;;;;;3.97;2.28;;;;;;;33.99;77.03;100810.28;5392881;26;64945;-30
2024/04/22 04:05:11;;;;;;;2.47;2.35;;;;;;;34.03;76.85;100801.41;5407558;26;68649;-32
2024/04/22 04:07:43;;;;;;;4.60;2.40;;;;;;;34.02;76.90;100788.06;5387153;26;65439;-30
2024/04/22 04:10:14;;;;;;;3.15;2.35;;;;;;;34.09;76.63;100794.19;5387691;26;68688;-30
2024/04/22 04:12:45;;;;;;;;;;;;;;;34.09;77.01;100786.03;5398561;26;65123;-31
2024/04/22 04:15:16;;;;;;;2.55;2.35;;;;;;;34.16;76.68;100789.44;5380625;26;68729;-31
2024/04/22 04:17:47;;;;;;;2.45;2.25;;;;;;;34.19;76.60;100783.50;5388178;26;64725;-31
2024/04/22 04:20:21;;;;;;;3.30;2.50;;;;;;;34.21;77.27;100781.38;5397772;26;68581;-30
2024/04/22 04:22:53;;;;;;;3.35;2.83;;;;;;;34.23;77.36;100775.66;5390849;26;64447;-30
2024/04/22 04:25:24;;;;;;;3.10;2.80;;;;;;;34.26;77.09;100773.25;5405368;26;68282;-31
2024/04/22 04:27:55;;;;;;;3.17;2.97;;;;;;;34.31;77.05;100772.53;5388487;26;65239;-30
2024/04/22 04:30:26;;;;;;;3.35;3.15;;;;;;;34.33;76.92;100775.03;5392962;26;68634;-30
2024/04/22 04:32:57;;;;;;;2.83;2.63;;;;;;;34.35;76.66;100759.25;5386265;26;64999;-31
2024/04/22 04:35:29;;;;;;;3.20;2.53;;;;;;;34.39;77.00;100765.84;5387449;26;68818;-30
2024/04/22 04:38:00;;;;;;;3.17;2.97;;;;;;;34.40;76.76;100762.06;5414376;26;64242;-33
2024/04/22 04:40:32;;;;;;;2.38;2.28;;;;;;;34.43;77.00;100756.09;5386626;26;67675;-32
2024/04/22 04:43:03;;;;;;;2.55;2.35;;;;;;;34.47;76.44;100757.28;5389325;26;65714;-30
2024/04/22 04:45:34;;;;;;;3.40;2.35;;;;;;;34.51;76.53;100757.59;5398766;26;68325;-31
2024/04/22 04:48:06;;;;;;;2.75;2.55;;;;;;;34.46;76.28;100747.44;5397773;26;65014;-30
2024/04/22 04:50:37;;;;;;;;;;;;;;;34.50;76.94;100756.78;5409687;26;68361;-31
2024/04/22 04:53:08;;;;;;;2.78;2.58;;;;;;;34.59;76.59;100752.59;5407944;26;64486;-31
2024/04/22 04:55:40;;;;;;;2.78;2.58;;;;;;;34.60;76.58;100748.81;5386643;26;69156;-30
2024/04/22 04:58:11;;;;;;;;;;;;;;;34.56;76.85;100738.66;5387234;26;65042;-31
2024/04/22 05:00:42;;;;;;;2.50;2.30;;;;;;;34.69;76.56;100733.69;5391209;26;67749;-30
2024/04/22 05:03:14;;;;;;;;;;;;;;;34.68;76.42;100733.91;5386652;26;64424;-32
2024/04/22 05:06:03;;;;;;;2.90;2.57;;;;;;;34.72;76.64;100737.00;5404949;26;67791;-31
2024/04/22 05:08:34;;;;;;;2.28;2.17;;;;;;;34.77;76.66;100717.97;5376308;26;64143;-34
2024/04/22 05:11:07;;;;;;;4.72;2.70;;;;;;;34.74;76.46;100702.13;5387013;26;68641;-30
2024/04/22 05:13:38;;;;;;;2.42;2.22;;;;;;;34.83;76.08;100712.34;5388794;26;65170;-30
2024/04/22 05:16:10;;;;;;;2.63;1.80;;;;;;;34.84;76.31;100713.16;5385261;26;69404;-30
2024/04/22 05:18:41;;;;;;;2.30;2.17;;;;;;;34.87;76.28;100694.41;5369521;26;64375;-31
2024/04/22 05:21:13;;;;;;;2.58;2.35;;;;;;;34.90;76.59;100684.91;5385501;26;68063;-30
2024/04/22 05:23:50;;;;;;;3.40;2.20;;;;;;;34.73;76.67;100657.72;5369383;26;65156;-31
2024/04/22 05:26:21;;;;;;;6.07;2.13;;;;;;;34.95;76.17;100682.25;5380323;26;67961;-31
2024/04/22 05:28:52;;;;;;;2.60;2.40;;;;;;;34.98;76.00;100679.00;5377416;26;63451;-30
2024/04/22 05:31:23;;;;;;;2.10;2.00;;;;;;;34.99;76.12;100668.94;5395657;26;69001;-31
2024/04/22 05:36:45;;;;;;;6.10;1.92;;;;;;;35.06;75.94;100662.25;5389956;26;68855;-33
2024/04/22 05:39:16;;;;;;;2.42;2.30;;;;;;;35.07;76.18;100661.16;5401473;26;65219;-31
2024/04/22 05:41:48;;;;;;;2.10;2.00;;;;;;;35.11;76.12;100645.13;5388675;26;68552;-30
2024/04/22 05:44:18;;;;;;;;;;;;;;;35.05;75.99;100646.94;5409694;26;64943;-31
2024/04/22 05:46:50;;;;;;;2.40;2.20;;;;;;;35.18;75.93;100639.47;5402955;26;68607;-30
2024/04/22 05:49:22;;;;;;;1.90;1.67;;;;;;;35.19;75.78;100635.66;5391567;26;64966;-30
2024/04/22 05:51:53;;;;;;;2.88;2.03;;;;;;;35.23;76.25;100628.63;5373508;26;68975;-33
2024/04/22 05:54:25;;;;;;;2.10;1.98;;;;;;;35.23;75.94;100623.19;5414200;26;64622;-31
2024/04/22 05:56:56;;;;;;;2.33;2.13;;;;;;;35.28;75.94;100628.69;5413978;26;68010;-31
2024/04/22 05:59:28;;;;;;;1.90;1.80;;;;;;;35.31;75.75;100618.09;5385363;26;64826;-30
2024/04/22 06:01:59;;;;;;;1.95;1.73;;;;;;;35.35;76.13;100607.47;5385351;26;69351;-30
2024/04/22 06:04:31;;;;;;;1.92;1.83;;;;;;;35.36;75.80;100598.22;5388184;26;64367;-31
2024/04/22 06:07:03;;;;;;;2.35;2.05;;;;;;;35.37;76.03;100597.16;5366701;26;68945;-30
2024/04/22 06:09:34;;;;;;;2.00;1.90;;;;;;;35.45;75.49;100599.41;5387660;26;65319;-31
2024/04/22 06:12:06;;;;;;;2.28;2.08;;;;;;;35.45;75.55;100596.69;5373477;26;68817;-32
2024/04/22 06:14:48;;;;;;;2.28;2.05;;;;;;;35.48;75.75;100587.97;5400195;26;64688;-33
2024/04/22 06:17:19;;;;;;;2.17;2.03;;;;;;;35.52;75.80;100594.56;5391265;26;69332;-32
2024/04/22 06:19:51;;;;;;;1.70;1.60;;;;;;;35.56;75.34;100584.81;5389638;26;64747;-30
2024/04/22 06:22:22;;;;;;;2.08;1.95;;;;;;;35.61;75.42;100572.28;5387458;26;69013;-32
2024/04/22 06:24:53;;;;;;;1.88;1.77;;;;;;;35.58;74.88;100565.47;5366450;26;65867;-32
2024/04/22 06:27:25;;;;;;;2.30;2.10;;;;;;;35.65;75.15;100567.97;5389635;26;68861;-31
2024/04/22 06:29:56;;;;;;;1.73;1.63;;;;;;;35.66;74.93;100566.88;5382561;26;64215;-31
2024/04/22 06:32:28;;;;;;;2.47;2.00;;;;;;;35.70;75.17;100557.09;5386266;26;67930;-30
2024/04/22 06:34:59;;;;;;;;;;;;;;;35.63;74.95;100556.47;5390771;26;64824;-35
2024/04/22 06:37:30;;;;;;;2.15;2.05;;;;;;;35.76;74.76;100547.84;5384816;26;68647;-31
2024/04/22 06:40:02;;;;;;;1.92;1.77;;;;;;;35.78;75.02;100548.44;5388117;26;64620;-31
2024/04/22 06:42:34;;;;;;;2.05;1.95;;;;;;;35.82;74.78;100541.34;5382973;26;68636;-31
2024/04/22 06:45:05;;;;;;;1.63;1.52;;;;;;;35.84;74.61;100524.72;5397625;26;65568;-34
2024/04/22 06:47:37;;;;;;;1.80;1.70;;;;;;;35.87;74.80;100527.75;5391074;26;68225;-32
2024/04/22 06:50:09;;;;;;;1.80;1.70;;;;;;;35.90;74.53;100519.03;5383371;26;64987;-31
2024/04/22 06:52:41;;;;;;;2.40;1.90;;;;;;;35.92;74.71;100508.66;5394987;26;67698;-30
2024/04/22 06:55:13;;;;;;;1.88;1.73;;;;;;;35.96;74.28;100509.78;5404906;26;65636;-31
2024/04/22 06:57:43;;;;;;;;;;;;;;;35.89;74.00;100501.00;5388341;26;69285;-32
2024/04/22 07:00:15;;;;;;;1.80;1.70;;;;;;;36.01;74.60;100498.88;5392020;26;64403;-30
2024/04/22 07:02:46;;;;;;;3.50;1.70;;;;;;;36.05;74.46;100503.81;5387676;26;68874;-31
2024/04/22 07:05:17;;;;;;;2.03;1.83;;;;;;;36.08;74.10;100492.38;5380250;26;65021;-31
2024/04/22 07:07:49;;;;;;;1.80;1.70;;;;;;;36.07;74.11;100488.03;5391984;26;67573;-31
2024/04/22 07:10:20;;;;;;;;;;;;;;;36.01;73.95;100487.97;5389078;26;65432;-30
2024/04/22 07:12:50;;;;;;;1.90;1.80;;;;;;;36.11;74.49;100486.41;5397724;26;69242;-31
2024/04/22 07:15:21;;;;;;;;;;;;;;;36.07;73.64;100496.22;5387720;26;64920;-32
2024/04/22 07:17:52;;;;;;;3.80;1.70;;;;;;;36.23;73.97;100479.63;5372968;26;68530;-31
2024/04/22 07:20:24;;;;;;;1.88;1.75;;;;;;;36.20;73.58;100466.53;5378149;26;65835;-31
2024/04/22 07:22:55;;;;;;;1.95;1.75;;;;;;;36.25;73.61;100476.66;5386174;26;68632;-29
2024/04/22 07:25:26;;;;;;;1.50;1.40;;;;;;;36.27;73.94;100469.00;5400685;26;65061;-31
2024/04/22 07:27:58;;;;;;;1.90;1.80;;;;;;;36.29;73.81;100461.38;5401304;26;69058;-30
2024/04/22 07:30:30;;;;;;;2.05;1.95;;;;;;;36.32;73.38;100460.00;5385373;26;65057;-31
2024/04/22 07:33:01;;;;;;;2.15;2.05;;;;;;;36.35;73.95;100456.75;5395332;26;68922;-31
2024/04/22 07:35:34;;;;;;;2.63;1.90;;;;;;;36.36;73.32;100461.94;5390821;26;65625;-30
2024/04/22 07:38:12;;;;;;;2.45;2.25;;;;;;;36.37;73.62;100455.38;5377134;26;69433;-35
2024/04/22 07:40:44;;;;;;;2.08;1.98;;;;;;;36.44;73.44;100441.47;5369295;26;64175;-31
2024/04/22 07:43:15;;;;;;;4.82;2.00;;;;;;;36.46;73.13;100448.31;5402481;26;69154;-33
2024/04/22 07:45:46;;;;;;;1.48;1.38;;;;;;;36.42;73.64;100430.00;5386692;26;64736;-31
2024/04/22 07:48:18;;;;;;;2.15;2.05;;;;;;;36.49;73.83;100441.47;5406365;26;69240;-32
2024/04/22 07:50:49;;;;;;;2.28;1.90;;;;;;;36.53;73.59;100441.78;5386632;26;64208;-32
2024/04/22 07:53:21;;;;;;;1.63;1.52;;;;;;;36.55;73.26;100434.16;5410834;26;68800;-31
2024/04/22 07:55:52;;;;;;;;;;;;;;;36.45;72.33;100427.56;5400773;26;65243;-32
2024/04/22 07:58:23;;;;;;;2.22;2.03;;;;;;;36.59;73.69;100418.88;5385812;26;67734;-33
2024/04/22 08:00:55;;;;;;;1.98;1.88;;;;;;;36.62;73.14;100415.59;5377218;26;64181;-35
2024/04/22 08:03:26;;;;;;;;;;;;;;;36.52;72.76;100416.34;5385308;26;68308;-31
2024/04/22 08:06:03;;;;;;;2.95;1.60;;;;;;;36.67;72.70;100418.34;5380561;26;64333;-32
2024/04/22 08:08:38;;;;;;;1.70;1.60;;;;;;;36.49;72.34;100381.38;5385171;26;68729;-31
2024/04/22 08:11:10;;;;;;;2.08;1.65;;;;;;;36.73;72.53;100411.78;5376840;26;64038;-31
2024/04/22 08:13:40;;;;;;;;;;;;;;;36.61;73.02;100401.13;5383031;26;68759;-32
2024/04/22 08:16:12;;;;;;;1.67;1.50;;;;;;;36.74;72.91;100399.75;5387625;26;65113;-31
2024/04/22 08:18:43;;;;;;;;;;;;;;;36.64;72.18;100397.84;5398842;26;68241;-31
2024/04/22 08:21:15;;;;;;;1.70;1.60;;;;;;;36.79;72.56;100388.00;5376456;26;64403;-30
2024/04/22 08:23:46;;;;;;;1.88;1.77;;;;;;;36.81;72.36;100397.59;5431209;26;67842;-31
2024/04/22 08:26:17;;;;;;;1.70;1.60;;;;;;;36.80;72.98;100385.00;5391627;26;65063;-31
2024/04/22 08:28:50;;;;;;;1.98;1.75;;;;;;;36.83;72.44;100383.63;5398470;26;68243;-34
2024/04/22 08:31:23;;;;;;;1.92;1.83;;;;;;;36.85;72.40;100393.19;5387759;26;64949;-31
2024/04/22 08:33:54;;;;;;;3.22;2.00;;;;;;;36.86;73.07;100383.09;5385909;26;68883;-31
2024/04/22 08:36:25;;;;;;;2.00;1.63;;;;;;;36.87;72.52;100396.47;5395433;26;65658;-30
2024/04/22 08:38:57;;;;;;;2.10;2.00;;;;;;;36.90;72.25;100393.19;5387563;26;68707;-31
2024/04/22 08:41:28;;;;;;;1.90;1.80;;;;;;;36.90;72.12;100390.47;5382538;26;64090;-30
2024/04/22 08:43:59;;;;;;;2.20;2.00;;;;;;;36.91;71.87;100394.84;5385290;26;69511;-30
2024/04/22 08:46:31;;;;;;;2.72;2.00;;;;;;;36.91;72.50;100385.81;5389784;26;64174;-30
2024/04/22 08:49:03;;;;;;;2.17;1.98;;;;;;;36.94;72.77;100384.44;5384141;26;68947;-31
2024/04/22 08:51:36;;;;;;;;;;;;;;;36.85;72.09;100375.97;5406596;26;64566;-31
2024/04/22 08:54:08;;;;;;;1.80;1.70;;;;;;;36.98;72.42;100385.56;5386715;26;69032;-31
2024/04/22 08:56:40;;;;;;;1.80;1.70;;;;;;;36.99;72.57;100376.25;5386697;26;64362;-31
2024/04/22 08:59:12;;;;;;;3.60;1.60;;;;;;;37.00;72.57;100383.34;5407490;26;69238;-31
2024/04/22 09:02:02;;;;;;;1.95;1.60;;;;;;;36.80;72.76;100346.72;5408415;26;65470;-30
2024/04/22 09:04:33;;;;;;;1.85;1.67;;;;;;;36.99;72.40;100387.19;5396845;26;68597;-30
2024/04/22 09:07:09;;;;;;;2.33;1.73;;;;;;;36.77;72.44;100347.28;5420810;26;64135;-30
2024/04/22 09:09:44;;;;;;;2.30;2.10;;;;;;;36.99;72.56;100387.19;5417674;26;70318;-31
2024/04/22 09:12:36;;;;;;;3.35;1.95;;;;;;;37.01;72.57;100390.47;5407404;26;65073;-31
2024/04/22 09:15:07;;;;;;;2.45;2.00;;;;;;;37.02;71.92;100386.66;5407643;26;68829;-31
2024/04/22 09:17:42;;;;;;;4.80;2.03;;;;;;;36.92;72.79;100387.47;5381680;26;65290;-31
2024/04/22 09:20:25;;;;;;;6.18;2.20;;;;;;;36.88;72.89;100387.19;5390252;26;68611;-32
2024/04/22 09:22:56;;;;;;;2.53;2.25;;;;;;;36.88;73.18;100384.44;5377016;26;64311;-30
2024/04/22 09:25:28;;;;;;;2.63;2.40;;;;;;;36.85;72.79;100381.44;5384345;26;67378;-31
2024/04/22 09:28:01;;;;;;;3.17;2.20;;;;;;;36.66;73.80;100351.09;5363592;26;64851;-31
2024/04/22 09:30:40;;;;;;;3.33;2.30;;;;;;;36.61;74.14;100342.91;5391395;26;67945;-32
2024/04/22 09:33:14;;;;;;;5.00;2.50;;;;;;;36.55;74.32;100338.53;5396510;26;64728;-33
2024/04/22 09:35:50;;;;;;;1.98;1.80;;;;;;;36.80;73.65;100376.78;5385918;26;67801;-30
2024/04/22 09:38:23;;;;;;;2.00;1.85;;;;;;;36.83;74.19;100381.75;5374918;26;63790;-30
2024/04/22 09:41:13;;;;;;;4.07;2.40;;;;;;;36.80;73.93;100384.19;5397434;26;69233;-31
2024/04/22 09:43:48;;;;;;;2.60;2.40;;;;;;;36.74;73.67;100380.63;5391346;26;64515;-30
2024/04/22 09:46:26;;;;;;;7.18;2.72;;;;;;;36.52;74.61;100355.44;5388288;26;68418;-31
2024/04/22 09:48:59;;;;;;;3.08;2.05;;;;;;;36.70;74.68;100386.94;5405951;26;65095;-30
2024/04/22 09:51:34;;;;;;;4.13;2.70;;;;;;;36.71;74.07;100392.09;5377029;26;67357;-37
2024/04/22 09:54:06;;;;;;;7.30;2.22;;;;;;;36.70;74.02;100389.66;5392705;26;65473;-30
2024/04/22 09:56:38;;;;;;;2.95;2.45;;;;;;;36.68;74.53;100398.13;5387634;26;68731;-30
2024/04/22 09:59:10;;;;;;;2.40;2.20;;;;;;;36.64;74.26;100402.50;5394468;26;65112;-32
2024/04/22 10:01:42;;;;;;;2.38;2.10;;;;;;;36.67;74.02;100407.41;5395351;26;68795;-31
2024/04/22 10:04:17;;;;;;;4.40;2.50;;;;;;;36.65;74.38;100399.47;5390019;26;64825;-30
2024/04/22 10:06:50;;;;;;;4.13;2.33;;;;;;;36.57;73.94;100394.53;5392934;26;67824;-31
2024/04/22 10:09:22;;;;;;;2.42;2.20;;;;;;;36.58;74.09;100392.63;5388172;26;65248;-32
2024/04/22 10:11:53;;;;;;;6.55;2.50;;;;;;;36.51;74.53;100386.59;5401655;26;67977;-31
2024/04/22 10:14:27;;;;;;;;;;;;;;;36.44;74.66;100393.16;5394200;26;63947;-31
2024/04/22 10:17:02;;;;;;;3.10;2.55;;;;;;;36.53;74.25;100389.88;5392165;26;68836;-30
2024/04/22 10:19:34;;;;;;;2.92;2.38;;;;;;;36.50;74.20;100380.31;5395782;26;65273;-30
2024/04/22 10:22:07;;;;;;;2.13;1.92;;;;;;;36.47;73.54;100381.66;5377817;26;68512;-30
2024/04/22 10:24:42;;;;;;;3.60;2.13;;;;;;;36.49;73.35;100388.75;5387492;26;64441;-31
2024/04/22 10:27:14;;;;;;;8.02;2.58;;;;;;;36.44;73.17;100384.94;5389246;26;67954;-33
2024/04/22 10:29:45;;;;;;;2.20;2.00;;;;;;;36.40;73.36;100392.03;5390090;26;64158;-30
2024/04/22 10:32:16;;;;;;;3.00;2.30;;;;;;;36.35;73.41;100383.81;5400209;26;68762;-30
2024/04/22 10:34:47;;;;;;;2.75;2.17;;;;;;;36.33;72.65;100402.41;5378523;26;64411;-31
2024/04/22 10:37:19;;;;;;;2.67;1.63;;;;;;;36.28;72.81;100390.66;5385487;26;68903;-31
2024/04/22 10:39:50;;;;;;;;;;;;;;;36.22;73.09;100400.72;5406553;26;64720;-35
2024/04/22 10:42:24;;;;;;;6.43;2.50;;;;;;;36.26;72.69;100407.28;5395152;26;68888;-31
2024/04/22 10:44:56;;;;;;;2.58;1.77;;;;;;;36.22;72.16;100414.38;5396538;26;65686;-32
2024/04/22 10:47:28;;;;;;;2.85;2.03;;;;;;;36.23;72.21;100418.75;5360222;26;68711;-32
2024/04/22 10:50:00;;;;;;;5.82;2.17;;;;;;;36.23;72.58;100424.22;5369836;26;65115;-32
2024/04/22 10:52:32;;;;;;;2.58;2.35;;;;;;;36.15;72.49;100413.81;5412173;26;68547;-31
2024/04/22 10:55:03;;;;;;;;;;;;;;;36.13;72.27;100418.69;5395665;26;64915;-31
2024/04/22 10:57:35;;;;;;;2.60;2.20;;;;;;;36.23;72.25;100413.28;5366531;26;67580;-30
2024/04/22 11:00:07;;;;;;;3.70;2.17;;;;;;;36.13;72.57;100413.25;5385859;26;64332;-31
2024/04/22 11:02:40;;;;;;;3.97;2.35;;;;;;;36.00;72.44;100406.34;5385151;26;68714;-30
2024/04/22 11:05:13;;;;;;;5.18;2.35;;;;;;;36.11;72.75;100418.13;5362670;26;64336;-31
2024/04/22 11:07:45;;;;;;;10.77;2.35;;;;;;;36.10;72.59;100425.50;5386914;26;68778;-30
2024/04/22 11:10:17;;;;;;;4.68;2.83;;;;;;;36.09;72.32;100418.44;5377219;26;64082;-30
2024/04/22 11:13:03;;;;;;;11.38;2.53;;;;;;;36.03;73.13;100433.94;5402201;26;69131;-31
2024/04/22 11:15:35;;;;;;;3.78;2.97;;;;;;;36.03;73.24;100431.19;5387326;26;64671;-30
2024/04/22 11:18:08;;;;;;;4.00;3.30;;;;;;;35.96;73.03;100421.59;5404869;26;69085;-30
2024/04/22 11:20:41;;;;;;;5.70;4.60;;;;;;;35.95;73.83;100428.97;5413398;26;65544;-31
2024/04/22 11:23:12;;;;;;;5.93;5.50;;;;;;;35.95;73.79;100431.72;5386085;26;67883;-33
2024/04/22 11:25:44;;;;;;;13.15;6.32;;;;;;;35.93;73.81;100436.59;5392098;26;65620;-30
2024/04/22 11:28:15;;;;;;;15.23;5.80;;;;;;;35.94;74.38;100435.53;5404773;26;68082;-30
2024/04/22 11:30:47;;;;;;;;;;;;;;;35.81;74.63;100444.19;5385829;26;64944;-30
2024/04/22 11:33:24;;;;;;;12.43;5.15;;;;;;;35.90;73.99;100453.50;5385806;26;67713;-30
2024/04/22 11:35:58;;;;;;;5.82;5.25;;;;;;;35.86;74.04;100451.56;5392384;26;64643;-31
2024/04/22 11:38:29;;;;;;;5.45;5.05;;;;;;;35.84;74.10;100451.84;5394523;26;68912;-32
2024/04/22 11:41:01;;;;;;;4.68;4.28;;;;;;;35.76;74.16;100439.53;5403752;26;65417;-34
2024/04/22 11:43:32;;;;;;;8.65;4.95;;;;;;;35.78;75.10;100455.66;5375271;26;68226;-30
2024/04/22 11:46:03;;;;;;;;;;;;;;;35.68;75.47;100455.56;5390174;26;65836;-31
2024/04/22 11:48:34;;;;;;;7.95;4.78;;;;;;;35.73;75.42;100447.44;5384522;26;69030;-30
2024/04/22 11:51:08;;;;;;;8.40;4.40;;;;;;;35.73;74.93;100453.69;5384745;26;65057;-29
2024/04/22 11:53:40;;;;;;;8.45;4.07;;;;;;;35.68;75.41;100455.56;5416697;26;69202;-31
2024/04/22 11:56:11;;;;;;;4.15;3.85;;;;;;;35.68;75.15;100455.56;5402616;26;64731;-30
2024/04/22 11:58:42;;;;;;;6.25;3.95;;;;;;;35.69;75.49;100451.75;5409858;26;68776;-31